Time;durP1;ratioP1;P1;durP2;ratioP2;P2;SDS_P1;SDS_P2;PMS_P1;PMS_P2;Temp;Humidity;BMP_temperature;BMP_pressure;BME280_temperature;BME280_humidity;BME280_pressure;Samples;Min_cycle;Max_cycle;Signal;HPM_P1;HPM_P2
2021/05/26 00:00:36;;;;;;;;;;;10.80;99.90;;;;;;4975763;28;20384;-79
2021/05/26 00:03:02;;;;;;;;;;;10.80;99.90;;;;;;4976375;28;19917;-79
2021/05/26 00:05:29;;;;;;;;;;;10.80;99.90;;;;;;4976514;28;20373;-79
2021/05/26 00:07:55;;;;;;;;;;;10.80;99.90;;;;;;4976619;28;19906;-79
2021/05/26 00:10:21;;;;;;;;;;;10.90;99.90;;;;;;4976360;28;20280;-79
2021/05/26 00:12:46;;;;;;;;;;;10.90;99.90;;;;;;4976628;28;20001;-79
2021/05/26 00:15:12;;;;;;;;;;;10.90;99.90;;;;;;4976503;28;20428;-79
2021/05/26 00:17:38;;;;;;;;;;;10.90;99.90;;;;;;4976544;28;19905;-79
2021/05/26 00:20:04;;;;;;;;;;;10.90;99.90;;;;;;4976460;28;20280;-79
2021/05/26 00:22:29;;;;;;;;;;;10.90;99.90;;;;;;4976528;28;19917;-79
2021/05/26 00:24:55;;;;;;;;;;;10.90;99.90;;;;;;4976446;28;20281;-79
2021/05/26 00:27:21;;;;;;;;;;;10.90;99.90;;;;;;4993901;28;19956;-79
2021/05/26 00:29:47;;;;;;;;;;;10.80;99.90;;;;;;4976146;28;19909;-79
2021/05/26 00:32:13;;;;;;;;;;;10.80;99.90;;;;;;4974844;28;19906;-79
2021/05/26 00:34:39;;;;;;;;;;;10.90;99.90;;;;;;4975471;28;19910;-79
2021/05/26 00:37:05;;;;;;;;;;;10.80;99.90;;;;;;4976752;28;20269;-79
2021/05/26 00:39:31;;;;;;;;;;;10.80;99.90;;;;;;4992421;28;20358;-79
2021/05/26 00:41:57;;;;;;;;;;;10.80;99.90;;;;;;4994850;28;19912;-79
2021/05/26 00:44:23;;;;;;;;;;;10.90;99.90;;;;;;4995712;28;19905;-80
2021/05/26 00:46:49;;;;;;;;;;;10.90;99.90;;;;;;4995945;28;19913;-79
2021/05/26 00:49:15;;;;;;;;;;;10.90;99.90;;;;;;4995242;28;19906;-79
2021/05/26 00:51:41;;;;;;;;;;;10.80;99.90;;;;;;4995636;28;19964;-79
2021/05/26 00:54:06;;;;;;;;;;;10.80;99.90;;;;;;4994795;28;19956;-79
2021/05/26 00:56:33;;;;;;;;;;;10.80;99.90;;;;;;4995302;28;19906;-79
2021/05/26 00:58:59;;;;;;;;;;;10.80;99.90;;;;;;4995336;28;20004;-79
2021/05/26 01:01:25;;;;;;;;;;;10.80;99.90;;;;;;4995490;28;19905;-79
2021/05/26 01:03:51;;;;;;;;;;;10.80;99.90;;;;;;4995746;28;19913;-79
2021/05/26 01:06:16;;;;;;;;;;;10.80;99.90;;;;;;4995505;28;20420;-79
2021/05/26 01:08:42;;;;;;;;;;;10.80;99.90;;;;;;4994733;28;19910;-79
2021/05/26 01:11:09;;;;;;;;;;;10.80;99.90;;;;;;4994871;28;19914;-79
2021/05/26 01:13:34;;;;;;;;;;;10.80;99.90;;;;;;4995683;28;20052;-79
2021/05/26 01:16:00;;;;;;;;;;;11.00;99.90;;;;;;4994453;28;20412;-79
2021/05/26 01:18:30;;;;;;;;;;;11.00;99.90;;;;;;4996006;28;19905;-79
2021/05/26 01:20:57;;;;;;;;;;;10.80;99.90;;;;;;4995431;28;20297;-79
2021/05/26 01:23:22;;;;;;;;;;;10.90;99.90;;;;;;4994852;28;19906;-79
2021/05/26 01:25:49;;;;;;;;;;;10.90;99.90;;;;;;4994923;28;19912;-79
2021/05/26 01:28:15;;;;;;;;;;;10.80;99.90;;;;;;4994812;28;20440;-79
2021/05/26 01:30:41;;;;;;;;;;;10.90;99.90;;;;;;4994739;28;20037;-79
2021/05/26 01:33:06;;;;;;;;;;;10.80;99.90;;;;;;4994751;28;20027;-79
2021/05/26 01:35:32;;;;;;;;;;;10.80;99.90;;;;;;4995017;28;20045;-78
2021/05/26 01:37:58;;;;;;;;;;;10.80;99.90;;;;;;4994347;28;20571;-79
2021/05/26 01:40:23;;;;;;;0.90;0.85;;;10.80;99.90;;;;;;4994559;28;20008;-79
2021/05/26 01:42:49;;;;;;;;;;;10.80;99.90;;;;;;4994588;28;19906;-79
2021/05/26 01:45:15;;;;;;;;;;;10.80;99.90;;;;;;4993932;28;20038;-79
2021/05/26 01:47:43;;;;;;;;;;;10.90;99.90;;;;;;4994971;28;24077;-78
2021/05/26 01:50:19;;;;;;;;;;;10.90;99.90;;;;;;4992919;28;19960;-79
2021/05/26 01:52:46;;;;;;;;;;;10.80;99.90;;;;;;4992582;28;19913;-79
2021/05/26 01:55:12;;;;;;;;;;;10.80;99.90;;;;;;4993242;28;24155;-79
2021/05/26 01:57:40;;;;;;;;;;;10.90;99.90;;;;;;4993746;28;20384;-79
2021/05/26 02:00:06;;;;;;;;;;;10.90;99.90;;;;;;4993762;28;19912;-79
2021/05/26 02:02:33;;;;;;;;;;;10.90;99.90;;;;;;5001052;28;19968;-80
2021/05/26 02:04:59;;;;;;;;;;;10.90;99.90;;;;;;5008229;28;19916;-80
2021/05/26 02:07:25;;;;;;;;;;;11.00;99.90;;;;;;5008296;28;19914;-79
2021/05/26 02:09:51;;;;;;;;;;;10.90;99.90;;;;;;5008288;28;19932;-79
2021/05/26 02:12:23;;;;;;;;;;;10.90;99.90;;;;;;5009069;28;19929;-79
2021/05/26 02:14:51;;;;;;;;;;;10.90;99.90;;;;;;5010500;28;19912;-78
2021/05/26 02:17:16;;;;;;;;;;;10.90;99.90;;;;;;5011777;28;19996;-78
2021/05/26 02:19:42;;;;;;;;;;;10.90;99.90;;;;;;5009778;28;19906;-79
2021/05/26 02:22:07;;;;;;;;;;;10.90;99.90;;;;;;5009369;28;19928;-80
2021/05/26 02:24:33;;;;;;;;;;;10.90;99.90;;;;;;5008876;28;20337;-78
2021/05/26 02:26:58;;;;;;;;;;;10.80;99.90;;;;;;5010665;28;19941;-79
2021/05/26 02:29:24;;;;;;;;;;;10.80;99.90;;;;;;5010179;28;19932;-79
2021/05/26 02:31:49;;;;;;;;;;;10.80;99.90;;;;;;5009974;28;19909;-79
2021/05/26 02:34:15;;;;;;;;;;;10.70;99.90;;;;;;5009488;28;19912;-79
2021/05/26 02:36:40;;;;;;;;;;;10.70;99.90;;;;;;5007330;28;19916;-79
2021/05/26 02:39:07;;;;;;;;;;;10.70;99.90;;;;;;4993138;28;19906;-79
2021/05/26 02:41:32;;;;;;;;;;;10.80;99.90;;;;;;4994412;28;19906;-79
2021/05/26 02:43:58;;;;;;;;;;;10.80;99.90;;;;;;5011167;28;19912;-80
2021/05/26 02:46:24;;;;;;;;;;;10.70;99.90;;;;;;5004215;28;19913;-79
2021/05/26 02:48:49;;;;;;;;;;;10.60;99.90;;;;;;4988672;28;19953;-79
2021/05/26 02:51:15;;;;;;;;;;;10.50;99.90;;;;;;4994460;28;19932;-78
2021/05/26 02:53:40;;;;;;;;;;;10.50;99.90;;;;;;5010829;28;19968;-79
2021/05/26 02:56:06;;;;;;;;;;;10.40;99.90;;;;;;4994053;28;19906;-79
2021/05/26 02:58:31;;;;;;;;;;;10.40;99.90;;;;;;4994890;28;19981;-79
2021/05/26 03:00:57;;;;;;;;;;;10.40;99.90;;;;;;5011214;28;19906;-79
2021/05/26 03:03:22;;;;;;;;;;;10.40;99.90;;;;;;4992789;28;19906;-79
2021/05/26 03:05:48;;;;;;;;;;;10.30;99.90;;;;;;4993829;28;19912;-79
2021/05/26 03:08:13;;;;;;;;;;;10.40;99.90;;;;;;5010115;28;19906;-79
2021/05/26 03:10:39;;;;;;;;;;;10.30;99.90;;;;;;4994345;28;19910;-79
2021/05/26 03:13:04;;;;;;;;;;;10.30;99.90;;;;;;5011350;28;20292;-78
2021/05/26 03:15:29;;;;;;;;;;;10.30;99.90;;;;;;4993780;28;19909;-78
2021/05/26 03:17:55;;;;;;;;;;;10.30;99.90;;;;;;4994745;28;19906;-78
2021/05/26 03:20:20;;;;;;;;;;;10.30;99.90;;;;;;5011774;28;19905;-80
2021/05/26 03:22:46;;;;;;;;;;;10.40;99.90;;;;;;4992580;28;19906;-79
2021/05/26 03:25:13;;;;;;;;;;;10.50;99.90;;;;;;5010651;28;19944;-79
2021/05/26 03:27:39;;;;;;;;;;;10.50;99.90;;;;;;4994247;28;19913;-78
2021/05/26 03:30:09;;;;;;;;;;;10.50;99.90;;;;;;5011428;28;19932;-79
2021/05/26 03:32:36;;;;;;;;;;;10.40;99.90;;;;;;4993689;28;19912;-78
2021/05/26 03:35:02;;;;;;;;;;;10.30;99.90;;;;;;4994503;28;19906;-79
2021/05/26 03:37:27;;;;;;;;;;;10.40;99.90;;;;;;4999171;28;19940;-79
2021/05/26 03:39:53;;;;;;;;;;;10.50;99.90;;;;;;5012084;28;19905;-79
2021/05/26 03:42:18;;;;;;;;;;;10.50;99.90;;;;;;5011962;28;19921;-79
2021/05/26 03:44:44;;;;;;;;;;;10.40;99.90;;;;;;5013396;28;19925;-80
2021/05/26 03:47:09;;;;;;;;;;;10.50;99.90;;;;;;5011058;28;19913;-82
2021/05/26 03:49:35;;;;;;;;;;;10.50;99.90;;;;;;5013685;28;20006;-78
2021/05/26 03:52:00;;;;;;;;;;;10.50;99.90;;;;;;5011691;28;19909;-79
2021/05/26 03:54:26;;;;;;;;;;;10.50;99.90;;;;;;5009644;28;24066;-79
2021/05/26 03:56:51;;;;;;;;;;;10.40;99.90;;;;;;5010933;28;19914;-78
2021/05/26 03:59:17;;;;;;;;;;;10.40;99.90;;;;;;5012841;28;19939;-78
2021/05/26 04:01:42;;;;;;;;;;;10.40;99.90;;;;;;5013186;28;19910;-79
2021/05/26 04:04:08;;;;;;;;;;;10.40;99.90;;;;;;5011065;28;19912;-79
2021/05/26 04:06:34;;;;;;;;;;;10.40;99.90;;;;;;5013459;28;19929;-79
2021/05/26 04:08:59;;;;;;;;;;;10.50;99.90;;;;;;5011418;28;19929;-78
2021/05/26 04:11:25;;;;;;;;;;;10.50;99.90;;;;;;5010203;28;19914;-78
2021/05/26 04:13:50;;;;;;;;;;;10.50;99.90;;;;;;5009636;28;19921;-78
2021/05/26 04:16:16;;;;;;;;;;;10.50;99.90;;;;;;5012438;28;19912;-79
2021/05/26 04:18:41;;;;;;;;;;;10.50;99.90;;;;;;5015079;28;24057;-79
2021/05/26 04:21:07;;;;;;;;;;;10.70;99.90;;;;;;5013872;28;19905;-79
2021/05/26 04:23:32;;;;;;;;;;;10.70;99.90;;;;;;5013718;28;19912;-80
2021/05/26 04:25:58;;;;;;;;;;;10.70;99.90;;;;;;5014510;28;19957;-80
2021/05/26 04:28:24;;;;;;;;;;;10.80;99.90;;;;;;5014828;28;19906;-81
2021/05/26 04:30:49;;;;;;;;;;;10.70;99.90;;;;;;5011209;28;19975;-81
2021/05/26 04:33:16;;;;;;;;;;;10.70;99.90;;;;;;5010680;28;24063;-81
2021/05/26 04:35:42;;;;;;;;;;;10.80;99.90;;;;;;5012168;28;19910;-79
2021/05/26 04:38:08;;;;;;;;;;;10.80;99.90;;;;;;5011519;28;19929;-80
2021/05/26 04:40:33;;;;;;;;;;;10.80;99.90;;;;;;5008756;28;19905;-79
2021/05/26 04:43:00;;;;;;;0.83;0.83;;;10.80;99.90;;;;;;5009736;28;19977;-80
2021/05/26 04:45:25;;;;;;;;;;;10.80;99.90;;;;;;5011786;28;19905;-80
2021/05/26 04:47:51;;;;;;;1.60;1.10;;;10.90;99.90;;;;;;5011598;28;19972;-79
2021/05/26 04:50:16;;;;;;;;;;;11.00;99.90;;;;;;5030495;23;19922;-81
2021/05/26 04:52:42;;;;;;;;;;;11.10;99.90;;;;;;4990435;28;19991;-81
2021/05/26 04:55:08;;;;;;;2.65;0.90;;;11.10;99.90;;;;;;4972975;28;19912;-81
2021/05/26 04:57:34;;;;;;;2.72;1.13;;;11.10;99.90;;;;;;4984490;28;20490;-80
2021/05/26 05:00:03;;;;;;;4.32;1.00;;;11.10;99.90;;;;;;4979767;28;20073;-81
2021/05/26 05:02:59;;;;;;;2.45;0.90;;;11.10;99.90;;;;;;4993340;28;20018;-80
2021/05/26 05:06:02;;;;;;;2.03;0.85;;;11.20;99.90;;;;;;4979754;28;20079;-79
2021/05/26 05:08:29;;;;;;;5.28;0.85;;;11.20;99.90;;;;;;4923760;28;20534;-80
2021/05/26 05:10:59;;;;;;;0.95;0.80;;;11.20;99.90;;;;;;5009019;23;20042;-82
2021/05/26 05:17:11;;;;;;;1.77;0.60;;;11.30;99.90;;;;;;5019175;28;20037;-81
2021/05/26 05:20:29;;;;;;;1.85;0.73;;;11.30;99.90;;;;;;5017823;28;20050;-81
2021/05/26 05:42:21;;;;;;;1.48;1.02;;;11.60;99.90;;;;;;5008726;28;20046;-78
2021/05/26 05:45:22;;;;;;;4.72;1.92;;;11.40;99.90;;;;;;5008177;28;20085;-78
2021/05/26 05:48:08;;;;;;;4.53;0.73;;;11.30;99.90;;;;;;4998609;28;20042;-80
2021/05/26 05:50:37;;;;;;;1.20;0.90;;;11.20;99.90;;;;;;4995647;28;20042;-79
2021/05/26 05:53:17;;;;;;;0.95;0.75;;;11.20;99.90;;;;;;4999591;28;20074;-79
2021/05/26 05:55:43;;;;;;;1.85;0.82;;;11.20;99.90;;;;;;4968825;28;20023;-80
2021/05/26 05:58:29;;;;;;;2.92;1.02;;;11.10;99.90;;;;;;5006438;28;20038;-81
2021/05/26 06:05:07;;;;;;;1.17;0.80;;;11.10;99.90;;;;;;5018616;28;20103;-79
2021/05/26 06:14:36;;;;;;;0.75;0.50;;;11.30;99.90;;;;;;4949833;28;20095;-80
2021/05/26 06:20:28;;;;;;;0.60;0.55;;;11.30;99.90;;;;;;4999586;28;20099;-81
2021/05/26 06:22:57;;;;;;;1.65;0.98;;;11.50;99.90;;;;;;4991729;28;20061;-80
2021/05/26 06:25:30;;;;;;;1.77;1.00;;;11.40;99.90;;;;;;4992144;28;19913;-79
2021/05/26 06:27:57;;;;;;;3.63;0.75;;;11.40;99.90;;;;;;4994753;28;19914;-81
2021/05/26 06:30:44;;;;;;;2.75;0.73;;;11.40;99.90;;;;;;5014691;28;19921;-80
2021/05/26 06:33:16;;;;;;;2.17;0.75;;;11.30;99.90;;;;;;4985333;28;20046;-81
2021/05/26 06:35:48;;;;;;;2.60;0.90;;;11.20;99.90;;;;;;4982999;28;19920;-80
2021/05/26 06:38:40;;;;;;;2.47;0.98;;;11.30;99.90;;;;;;5009919;28;19898;-80
2021/05/26 06:41:14;;;;;;;2.40;0.70;;;11.40;99.90;;;;;;5010741;28;19906;-81
2021/05/26 06:43:40;;;;;;;3.60;0.80;;;11.50;99.90;;;;;;5003689;28;19918;-80
2021/05/26 06:46:06;;;;;;;3.67;0.88;;;11.50;99.90;;;;;;5004944;28;19913;-81
2021/05/26 06:48:31;;;;;;;2.10;0.93;;;11.50;99.90;;;;;;5007211;28;20037;-80
2021/05/26 06:50:57;;;;;;;6.70;1.85;;;11.40;99.90;;;;;;5006171;28;19913;-81
2021/05/26 06:53:25;;;;;;;1.13;0.77;;;11.40;99.90;;;;;;5005867;28;19909;-81
2021/05/26 06:55:51;;;;;;;1.75;1.10;;;11.30;99.90;;;;;;5004668;28;20023;-81
2021/05/26 06:58:16;;;;;;;2.25;0.95;;;11.30;99.90;;;;;;4992035;28;19906;-81
2021/05/26 07:00:42;;;;;;;3.40;1.50;;;11.40;99.90;;;;;;4988721;28;20329;-80
2021/05/26 07:03:09;;;;;;;2.83;0.98;;;11.40;99.90;;;;;;4976053;28;20027;-79
2021/05/26 07:05:35;;;;;;;;;;;11.40;99.90;;;;;;4977519;28;20050;-81
2021/05/26 07:08:00;;;;;;;1.30;0.73;;;11.40;99.90;;;;;;4982902;28;20366;-81
2021/05/26 07:10:26;;;;;;;3.10;1.00;;;11.40;99.90;;;;;;4981132;28;20038;-80
2021/05/26 07:12:51;;;;;;;2.55;0.80;;;11.30;99.90;;;;;;4982287;28;20023;-81
2021/05/26 07:15:18;;;;;;;1.67;0.90;;;11.30;99.90;;;;;;4982311;28;20023;-81
2021/05/26 07:17:44;;;;;;;7.38;1.17;;;11.40;99.90;;;;;;4983166;28;20029;-81
2021/05/26 07:20:11;;;;;;;3.15;1.30;;;11.40;99.90;;;;;;4990466;28;20398;-80
2021/05/26 07:22:37;;;;;;;1.95;0.60;;;11.50;99.90;;;;;;5004770;28;20050;-80
2021/05/26 07:25:03;;;;;;;1.65;1.25;;;11.50;99.90;;;;;;5000334;28;19921;-80
2021/05/26 07:27:28;;;;;;;1.50;0.68;;;11.50;99.90;;;;;;4997237;28;20022;-81
2021/05/26 07:29:55;;;;;;;2.00;1.20;;;11.40;99.90;;;;;;5007048;28;19989;-81
2021/05/26 07:32:20;;;;;;;0.90;0.90;;;11.40;99.90;;;;;;5002937;28;19944;-80
2021/05/26 07:34:46;;;;;;;7.15;1.20;;;11.30;99.90;;;;;;5008903;28;19906;-80
2021/05/26 07:37:11;;;;;;;2.25;1.00;;;11.40;99.90;;;;;;5013851;28;19913;-81
2021/05/26 07:39:37;;;;;;;3.53;0.50;;;11.50;99.90;;;;;;5004498;28;20312;-81
2021/05/26 07:42:04;;;;;;;2.85;1.05;;;11.60;99.90;;;;;;4998348;28;20405;-77
2021/05/26 07:44:30;;;;;;;4.10;0.70;;;11.60;99.90;;;;;;4993351;28;20088;-81
2021/05/26 07:46:55;;;;;;;;;;;11.90;99.90;;;;;;5011555;28;20129;-81
2021/05/26 07:49:24;;;;;;;2.70;0.70;;;12.30;99.90;;;;;;4993824;28;19921;-80
2021/05/26 07:51:54;;;;;;;0.73;0.60;;;12.20;99.90;;;;;;4997479;28;20040;-80
2021/05/26 07:54:24;;;;;;;2.10;1.10;;;12.10;99.90;;;;;;4996420;28;20439;-81
2021/05/26 07:56:50;;;;;;;1.33;1.00;;;12.00;99.90;;;;;;4997594;28;19905;-81
2021/05/26 07:59:16;;;;;;;1.42;0.60;;;12.10;99.90;;;;;;4995352;28;19910;-80
2021/05/26 08:01:42;;;;;;;3.80;0.95;;;12.00;99.90;;;;;;4996062;28;19910;-81
2021/05/26 08:04:09;;;;;;;1.65;0.75;;;11.90;99.90;;;;;;4996442;28;19917;-80
2021/05/26 08:06:35;;;;;;;3.90;1.50;;;11.70;99.90;;;;;;4996637;28;19910;-80
2021/05/26 08:09:00;;;;;;;1.90;0.60;;;11.60;99.90;;;;;;4995341;28;19918;-80
2021/05/26 08:11:26;;;;;;;1.45;0.60;;;11.50;99.90;;;;;;4996353;28;20427;-80
2021/05/26 08:13:52;;;;;;;2.55;1.45;;;11.50;99.90;;;;;;4995904;28;19909;-81
2021/05/26 08:16:18;;;;;;;1.48;1.02;;;11.50;99.90;;;;;;4996494;28;20365;-80
2021/05/26 08:18:44;;;;;;;4.05;0.90;;;11.50;99.90;;;;;;4996315;28;19961;-80
2021/05/26 08:21:11;;;;;;;1.05;0.70;;;11.60;99.90;;;;;;4996892;28;19910;-81
2021/05/26 08:23:37;;;;;;;0.90;0.70;;;11.50;99.90;;;;;;4998401;28;20270;-80
2021/05/26 08:26:04;;;;;;;2.58;0.80;;;11.60;99.90;;;;;;4996769;28;19928;-80
2021/05/26 08:28:29;;;;;;;;;;;11.80;99.90;;;;;;5001087;28;20269;-80
2021/05/26 08:30:56;;;;;;;5.85;0.60;;;12.00;99.90;;;;;;4996869;28;24121;-80
2021/05/26 08:33:21;;;;;;;;;;;12.00;99.90;;;;;;4994503;28;19913;-80
2021/05/26 08:35:47;;;;;;;;;;;12.00;99.90;;;;;;4994760;28;19906;-75
2021/05/26 08:38:12;;;;;;;2.58;0.77;;;12.30;99.90;;;;;;4993886;28;19953;-75
2021/05/26 08:40:38;;;;;;;2.22;1.23;;;12.20;99.90;;;;;;4993887;28;20413;-75
2021/05/26 08:43:04;;;;;;;2.83;1.20;;;12.40;99.90;;;;;;4995532;28;20113;-74
2021/05/26 08:45:30;;;;;;;1.83;0.60;;;12.30;99.90;;;;;;4995036;28;20058;-75
2021/05/26 08:47:59;;;;;;;1.85;0.95;;;12.10;99.90;;;;;;4995477;28;20427;-75
2021/05/26 08:50:25;;;;;;;1.67;0.85;;;12.00;99.90;;;;;;4994850;28;19942;-75
2021/05/26 08:52:50;;;;;;;0.57;0.47;;;12.20;99.90;;;;;;4995027;28;20556;-75
2021/05/26 08:55:17;;;;;;;2.47;0.88;;;12.30;99.90;;;;;;4995006;28;19910;-75
2021/05/26 08:57:43;;;;;;;1.80;0.70;;;12.40;99.90;;;;;;4994898;28;20509;-75
2021/05/26 09:00:09;;;;;;;1.85;0.85;;;12.30;99.90;;;;;;4994604;28;19916;-75
2021/05/26 09:02:35;;;;;;;0.73;0.73;;;12.50;99.90;;;;;;4993359;28;20034;-76
2021/05/26 09:05:00;;;;;;;1.02;0.70;;;12.60;99.90;;;;;;4994044;28;19914;-76
2021/05/26 09:07:29;;;;;;;3.28;0.40;;;12.60;99.90;;;;;;4977416;28;20026;-75
2021/05/26 09:09:58;;;;;;;1.48;0.68;;;12.70;99.90;;;;;;4994309;28;20000;-75
2021/05/26 09:12:26;;;;;;;2.25;1.63;;;12.90;99.90;;;;;;4994608;28;20512;-75
2021/05/26 09:14:51;;;;;;;;;;;13.00;99.90;;;;;;4995036;28;20081;-76
2021/05/26 09:17:17;;;;;;;0.37;0.30;;;13.00;99.90;;;;;;4994391;28;19909;-76
2021/05/26 09:19:43;;;;;;;2.88;0.90;;;13.10;99.90;;;;;;4976346;28;20097;-76
2021/05/26 09:22:13;;;;;;;1.63;0.70;;;13.20;99.90;;;;;;4994408;28;19910;-76
2021/05/26 09:24:39;;;;;;;3.00;1.00;;;13.00;99.90;;;;;;4976865;28;20030;-76
2021/05/26 09:27:08;;;;;;;2.38;0.63;;;13.20;99.90;;;;;;4976690;28;19912;-75
2021/05/26 09:29:40;;;;;;;4.43;0.73;;;13.30;99.90;;;;;;4993832;28;20544;-76
2021/05/26 09:32:26;;;;;;;1.75;0.77;;;13.60;99.90;;;;;;4976878;28;20105;-76
2021/05/26 09:34:58;;;;;;;2.83;0.85;;;13.60;99.90;;;;;;4994580;28;19956;-76
2021/05/26 09:37:31;;;;;;;3.65;1.45;;;13.90;99.90;;;;;;4994212;28;20386;-76
2021/05/26 09:40:07;;;;;;;2.28;0.60;;;13.80;99.90;;;;;;4993913;28;20027;-75
2021/05/26 09:42:38;;;;;;;0.55;0.50;;;13.50;99.90;;;;;;4976661;28;20033;-75
2021/05/26 09:45:12;;;;;;;1.15;0.50;;;13.10;99.90;;;;;;4993896;28;19913;-75
2021/05/26 09:47:43;;;;;;;2.05;0.50;;;13.10;99.90;;;;;;4994004;28;20029;-76
2021/05/26 09:50:16;;;;;;;;;;;13.00;99.90;;;;;;4976573;28;19917;-76
2021/05/26 09:53:01;;;;;;;;;;;12.70;99.90;;;;;;4976780;28;19905;-76
2021/05/26 09:55:29;;;;;;;;;;;12.60;99.90;;;;;;4994677;28;19905;-75
2021/05/26 09:57:55;;;;;;;2.55;0.60;;;12.60;99.90;;;;;;4993743;28;19905;-75
2021/05/26 10:00:21;;;;;;;1.38;0.70;;;12.30;99.90;;;;;;4976075;28;19913;-76
2021/05/26 10:02:48;;;;;;;2.10;0.75;;;12.20;99.90;;;;;;4976257;28;20400;-75
2021/05/26 10:05:18;;;;;;;0.68;0.32;;;12.20;99.90;;;;;;4976478;28;20030;-76
2021/05/26 10:07:56;;;;;;;1.08;0.50;;;12.40;99.90;;;;;;4976237;28;20035;-76
2021/05/26 10:10:29;;;;;;;1.77;0.90;;;12.20;99.90;;;;;;4975950;28;20031;-75
2021/05/26 10:12:58;;;;;;;1.95;1.08;;;12.20;99.90;;;;;;4975226;28;20121;-76
2021/05/26 10:15:26;;;;;;;0.55;0.50;;;12.30;99.90;;;;;;4975933;28;20022;-76
2021/05/26 10:17:54;;;;;;;0.70;0.50;;;12.30;99.90;;;;;;4975894;28;20026;-75
2021/05/26 10:20:26;;;;;;;3.40;0.60;;;12.20;99.90;;;;;;4975768;28;20114;-75
2021/05/26 10:22:53;;;;;;;1.02;0.90;;;12.20;99.90;;;;;;4993282;28;20030;-75
2021/05/26 10:25:19;;;;;;;0.70;0.52;;;12.10;99.90;;;;;;4993349;28;20039;-75
2021/05/26 10:27:50;;;;;;;0.60;0.50;;;12.10;99.90;;;;;;4975714;28;20061;-76
2021/05/26 10:30:18;;;;;;;0.80;0.73;;;12.10;99.90;;;;;;4975423;28;20061;-75
2021/05/26 10:33:05;;;;;;;3.55;0.73;;;12.30;99.90;;;;;;4993378;28;20029;-75
2021/05/26 10:35:52;;;;;;;3.15;0.60;;;12.30;99.90;;;;;;4993255;28;20027;-75
2021/05/26 10:38:17;;;;;;;;;;;12.30;99.90;;;;;;4993049;28;20113;-75
2021/05/26 10:40:44;;;;;;;2.57;0.63;;;12.20;99.90;;;;;;4975461;28;20000;-75
2021/05/26 10:43:12;;;;;;;;;;;12.20;99.90;;;;;;4993394;28;20073;-75
2021/05/26 10:45:38;;;;;;;1.50;0.50;;;12.20;99.90;;;;;;4985789;28;19920;-75
2021/05/26 10:48:04;;;;;;;2.28;1.55;;;12.10;99.90;;;;;;4991699;28;20030;-75
2021/05/26 10:50:52;;;;;;;0.55;0.45;;;12.10;99.90;;;;;;4991129;28;20030;-75
2021/05/26 10:53:18;;;;;;;0.68;0.35;;;12.10;99.90;;;;;;4991629;28;20022;-75
2021/05/26 10:55:48;;;;;;;1.13;0.50;;;12.00;99.90;;;;;;4991620;28;20109;-76
2021/05/26 10:58:27;;;;;;;0.75;0.68;;;11.90;99.90;;;;;;4991415;28;20545;-75
2021/05/26 11:00:55;;;;;;;1.48;0.65;;;11.80;99.90;;;;;;4992753;28;20080;-76
2021/05/26 11:03:24;;;;;;;1.48;0.80;;;11.80;99.90;;;;;;4991307;28;20133;-76
2021/05/26 11:05:53;;;;;;;0.47;0.40;;;11.80;99.90;;;;;;4992707;28;20060;-75
2021/05/26 11:08:35;;;;;;;1.33;0.73;;;11.70;99.90;;;;;;4992516;28;20130;-76
2021/05/26 11:11:23;;;;;;;1.40;0.60;;;11.70;99.90;;;;;;4992580;28;20026;-75
2021/05/26 11:14:01;;;;;;;0.70;0.60;;;11.80;99.90;;;;;;4991091;28;20153;-75
2021/05/26 11:16:47;;;;;;;0.95;0.50;;;11.80;99.90;;;;;;4992588;28;20018;-75
2021/05/26 11:19:21;;;;;;;3.45;0.40;;;12.10;99.90;;;;;;4990857;28;20034;-75
2021/05/26 11:22:06;;;;;;;2.10;0.57;;;12.20;99.90;;;;;;4992352;28;20037;-76
2021/05/26 11:24:37;;;;;;;0.75;0.68;;;12.20;99.90;;;;;;4992028;28;20498;-75
2021/05/26 11:27:18;;;;;;;1.00;0.60;;;12.20;99.90;;;;;;4991286;28;19906;-75
2021/05/26 11:29:47;;;;;;;1.80;0.60;;;12.10;99.90;;;;;;4990786;28;20026;-75
2021/05/26 11:32:19;;;;;;;1.27;0.70;;;12.30;99.90;;;;;;4992168;28;20027;-75
2021/05/26 11:34:46;;;;;;;0.55;0.30;;;12.50;99.90;;;;;;4991025;28;20100;-75
2021/05/26 11:37:23;;;;;;;;;;;12.50;99.90;;;;;;4992750;28;20018;-75
2021/05/26 11:39:49;;;;;;;1.10;0.57;;;12.40;99.90;;;;;;4990921;28;19905;-75
2021/05/26 11:42:17;;;;;;;1.42;1.02;;;12.60;99.90;;;;;;4990801;28;20027;-75
2021/05/26 11:45:04;;;;;;;5.00;0.50;;;12.60;99.90;;;;;;4992120;28;20096;-76
2021/05/26 11:47:37;;;;;;;1.05;0.85;;;12.60;99.90;;;;;;4992175;28;20273;-76
2021/05/26 11:50:19;;;;;;;1.15;1.05;;;12.90;99.90;;;;;;4991727;28;20035;-76
2021/05/26 11:52:47;;;;;;;2.80;0.50;;;13.00;99.90;;;;;;4992266;28;19969;-75
2021/05/26 11:55:16;;;;;;;0.57;0.50;;;13.10;99.90;;;;;;4992080;28;19912;-76
2021/05/26 11:57:44;;;;;;;1.08;0.60;;;13.50;99.90;;;;;;4974586;28;19914;-76
2021/05/26 12:00:11;;;;;;;2.70;0.63;;;13.70;99.90;;;;;;4974284;28;20393;-76
2021/05/26 12:02:59;;;;;;;1.00;0.93;;;13.50;99.90;;;;;;4974743;28;20397;-76
2021/05/26 12:05:45;;;;;;;4.70;0.83;;;13.50;99.90;;;;;;4992041;28;20030;-75
2021/05/26 12:08:21;;;;;;;1.88;0.50;;;13.30;99.90;;;;;;4974723;28;20449;-75
2021/05/26 12:10:51;;;;;;;1.13;0.65;;;13.10;99.90;;;;;;4991650;28;20027;-76
2021/05/26 12:13:18;;;;;;;1.40;0.75;;;13.30;99.90;;;;;;4992332;28;19909;-77
2021/05/26 12:15:44;;;;;;;0.70;0.43;;;13.70;99.90;;;;;;4974609;28;20000;-76
2021/05/26 12:18:10;;;;;;;2.22;0.60;;;14.00;99.90;;;;;;4991699;28;20145;-76
2021/05/26 12:20:35;;;;;;;1.08;0.77;;;14.10;99.90;;;;;;4991535;28;20277;-76
2021/05/26 12:23:01;;;;;;;4.93;2.00;;;14.20;99.90;;;;;;4974401;28;20113;-76
2021/05/26 12:25:38;;;;;;;1.20;1.02;;;14.20;99.90;;;;;;4991865;28;20035;-76
2021/05/26 12:28:15;;;;;;;1.33;0.90;;;14.30;99.90;;;;;;4974250;28;20524;-76
2021/05/26 12:30:41;;;;;;;1.43;0.77;;;14.40;99.90;;;;;;4974059;28;20050;-76
2021/05/26 12:33:23;;;;;;;1.80;0.65;;;14.00;99.90;;;;;;4974294;28;20289;-76
2021/05/26 12:36:07;;;;;;;2.75;0.60;;;13.70;99.90;;;;;;4991588;28;20053;-76
2021/05/26 12:38:34;;;;;;;0.77;0.60;;;13.80;99.90;;;;;;4977759;28;20026;-75
2021/05/26 12:41:22;;;;;;;2.28;1.17;;;13.90;99.90;;;;;;4977673;28;20093;-76
2021/05/26 12:43:48;;;;;;;1.23;0.70;;;14.20;99.90;;;;;;4995416;28;20101;-76
2021/05/26 12:46:56;;;;;;;1.40;0.98;;;14.60;99.90;;;;;;4992827;28;19921;-75
2021/05/26 12:49:47;;;;;;;1.75;0.60;;;15.00;99.90;;;;;;4953854;29;20006;-76
2021/05/26 12:52:26;;;;;;;1.73;0.52;;;15.00;99.90;;;;;;4953957;29;20581;-76
2021/05/26 12:54:52;;;;;;;3.78;0.85;;;15.00;99.90;;;;;;4984670;28;20046;-76
2021/05/26 12:57:24;;;;;;;0.82;0.70;;;14.40;99.90;;;;;;4993831;28;19910;-76
2021/05/26 13:00:00;;;;;;;3.13;1.02;;;14.20;99.90;;;;;;4993556;28;20023;-75
2021/05/26 13:02:34;;;;;;;0.60;0.50;;;13.80;99.90;;;;;;4994967;28;20055;-76
2021/05/26 13:05:00;;;;;;;0.75;0.60;;;14.00;99.90;;;;;;4994959;28;20025;-76
2021/05/26 13:07:29;;;;;;;2.20;0.70;;;14.20;99.90;;;;;;4993676;28;20030;-75
2021/05/26 13:09:55;;;;;;;1.65;0.25;;;14.10;99.90;;;;;;4993333;28;20027;-75
2021/05/26 13:12:28;;;;;;;1.20;0.50;;;14.20;99.90;;;;;;4994675;28;20026;-75
2021/05/26 13:14:54;;;;;;;4.25;1.38;;;14.40;99.90;;;;;;4993377;28;20541;-76
2021/05/26 13:17:27;;;;;;;0.55;0.40;;;14.50;99.90;;;;;;4994696;28;20022;-76
2021/05/26 13:19:54;;;;;;;0.93;0.50;;;14.50;99.90;;;;;;4994368;28;20545;-76
2021/05/26 13:22:20;;;;;;;0.38;0.38;;;14.40;99.90;;;;;;4993294;28;20034;-75
2021/05/26 13:24:45;;;;;;;0.22;0.20;;;14.50;99.90;;;;;;4994470;28;20457;-76
2021/05/26 13:27:11;;;;;;;0.52;0.52;;;14.60;99.90;;;;;;4993379;28;20041;-75
2021/05/26 13:29:36;;;;;;;0.50;0.30;;;14.80;99.90;;;;;;4992793;28;20022;-75
2021/05/26 13:32:02;;;;;;;1.05;0.28;;;14.80;99.90;;;;;;4994226;28;20089;-76
2021/05/26 13:34:27;;;;;;;0.22;0.17;;;15.00;99.90;;;;;;4994368;28;20024;-76
2021/05/26 13:36:53;;;;;;;0.63;0.35;;;14.90;99.90;;;;;;4994334;28;20027;-75
2021/05/26 13:39:19;;;;;;;0.60;0.20;;;14.90;99.90;;;;;;4992809;28;20102;-76
2021/05/26 13:41:44;;;;;;;0.60;0.22;;;14.80;99.90;;;;;;4992719;28;20049;-76
2021/05/26 13:44:10;;;;;;;0.30;0.30;;;14.70;99.90;;;;;;4992823;28;20023;-76
2021/05/26 13:46:36;;;;;;;0.30;0.30;;;14.60;99.90;;;;;;4994154;28;20026;-75
2021/05/26 13:49:02;;;;;;;0.43;0.43;;;14.60;99.90;;;;;;4976357;28;20142;-75
2021/05/26 13:51:28;;;;;;;0.10;0.10;;;14.70;99.90;;;;;;4993839;28;20027;-76
2021/05/26 13:53:54;;;;;;;0.55;0.38;;;14.70;99.90;;;;;;4976576;28;20026;-76
2021/05/26 13:56:20;;;;;;;0.57;0.40;;;14.90;99.90;;;;;;4976441;28;20030;-75
2021/05/26 13:58:45;;;;;;;1.90;0.38;;;14.90;99.90;;;;;;4993659;28;20490;-76
2021/05/26 14:01:11;;;;;;;2.17;0.40;;;14.80;99.90;;;;;;4976243;28;20081;-76
2021/05/26 14:03:36;;;;;;;1.13;0.82;;;14.80;99.90;;;;;;4994385;28;20061;-77
2021/05/26 14:06:02;;;;;;;5.38;0.80;;;14.70;99.90;;;;;;4993737;28;20034;-77